Terminal Aerodrome Forecast
Issued by NWS

Home | Current Version | Previous Version | Text Only | Print | Product List | Glossary On
Versions: 1 2 3 4 5 6 7 8 9 10 11 12 13
000
FTUS46 KSEW 271100
TAFOLM
TAF
KOLM 271136Z 2712/2812 VRB03KT P6SM SCT012 OVC022
     FM271800 22006KT P6SM SCT022 BKN035 OVC050
     FM272100 02006KT P6SM SCT100
      TEMPO 2807/2811 3SM BR
     FM281100 00000KT 3SM BR SCT060 BKN120=

USA.gov is the U.S. government's official web portal to all federal, state and local government web resources and services.